DTW weather

Detroit Metropolitan Wayne County Airport
Detroit, Michigan, United States

Public forecast

Using degrees Fahrenheit for public forecast. Weather courtesy of forecast.io.

METAR (pilot weather report)

Retrieved 2018/09/20 07:53 UTC (27 minutes ago):

KDTW 200753Z 07004KT 10SM SCT075 BKN120 BKN220 18/13 A3006 RMK AO2 SLP176 T01780133

TAF (pilot weather forecast)

Retrieved 2018/09/20 06:33 UTC (2 hours ago):

TAF KDTW 200530Z 2006/2112 08005KT P6SM SCT040 BKN200 FM201000 12003KT 4SM BR SCT015 BKN150 FM201400 16005KT P6SM BKN025 OVC040 FM201900 20013KT P6SM BKN040 PROB30 2020/2024 3SM -TSRA OVC035CB